Time;durP1;ratioP1;P1;durP2;ratioP2;P2;SDS_P1;SDS_P2;PMS_P1;PMS_P2;Temp;Humidity;BMP_temperature;BMP_pressure;BME280_temperature;BME280_humidity;BME280_pressure;Samples;Min_cycle;Max_cycle;Signal;HPM_P1;HPM_P2
2021/10/13 00:00:56;;;;;;;12.37;8.07;;;6.10;99.90;;;;;;5074546;28;20447;-67
2021/10/13 00:03:23;;;;;;;13.00;9.23;;;6.10;99.90;;;;;;5067867;28;20448;-66
2021/10/13 00:05:50;;;;;;;13.10;9.47;;;6.10;99.90;;;;;;5054302;28;20494;-66
2021/10/13 00:08:16;;;;;;;15.70;9.67;;;6.00;99.90;;;;;;5054068;28;20451;-65
2021/10/13 00:10:46;;;;;;;16.63;10.33;;;6.00;99.90;;;;;;5054291;28;20448;-66
2021/10/13 00:13:13;;;;;;;12.10;9.80;;;6.00;99.90;;;;;;5058694;28;20884;-67
2021/10/13 00:15:40;;;;;;;18.40;10.13;;;6.00;99.90;;;;;;5075830;28;20486;-67
2021/10/13 00:18:07;;;;;;;16.40;9.67;;;5.90;99.90;;;;;;5060740;28;20451;-66
2021/10/13 00:20:34;;;;;;;20.13;11.60;;;5.90;99.90;;;;;;5059894;28;20819;-67
2021/10/13 00:23:01;;;;;;;19.03;11.13;;;5.90;99.90;;;;;;5064006;28;20447;-66
2021/10/13 00:25:28;;;;;;;16.10;9.53;;;5.90;99.90;;;;;;5081982;28;20466;-66
2021/10/13 00:27:56;;;;;;;19.00;10.37;;;5.90;99.90;;;;;;5081686;28;20443;-67
2021/10/13 00:30:23;;;;;;;14.00;9.20;;;5.80;99.90;;;;;;5081175;28;20443;-68
2021/10/13 00:32:50;;;;;;;16.00;10.43;;;5.80;99.90;;;;;;5079948;28;20439;-67
2021/10/13 00:35:16;;;;;;;23.20;11.00;;;5.80;99.90;;;;;;5059447;28;21003;-67
2021/10/13 00:37:43;;;;;;;18.10;10.90;;;5.80;99.90;;;;;;5058943;28;20444;-66
2021/10/13 00:40:11;;;;;;;23.93;11.10;;;5.80;99.90;;;;;;5057941;28;20455;-67
2021/10/13 00:42:37;;;;;;;12.93;9.50;;;5.70;99.90;;;;;;5060059;28;20448;-66
2021/10/13 00:45:07;;;;;;;15.60;11.27;;;5.80;99.90;;;;;;5078870;28;20471;-66
2021/10/13 00:47:34;;;;;;;18.43;10.80;;;5.80;99.90;;;;;;5080460;28;20439;-66
2021/10/13 00:50:01;;;;;;;15.60;10.43;;;5.80;99.90;;;;;;5080923;28;20435;-67
2021/10/13 00:52:28;;;;;;;20.60;12.70;;;5.70;99.90;;;;;;5077835;28;20443;-66
2021/10/13 00:54:55;;;;;;;21.00;11.53;;;5.70;99.90;;;;;;5062748;28;20809;-67
2021/10/13 00:57:23;;;;;;;23.77;13.20;;;5.70;99.90;;;;;;5056222;28;20495;-67
2021/10/13 00:59:49;;;;;;;21.27;11.53;;;5.70;99.90;;;;;;5053538;28;20456;-66
2021/10/13 01:02:27;;;;;;;23.13;12.70;;;5.70;99.90;;;;;;5053339;28;20444;-66
2021/10/13 01:05:23;;;;;;;16.87;10.40;;;5.70;99.90;;;;;;5070356;28;20463;-67
2021/10/13 01:08:10;;;;;;;20.10;13.57;;;5.70;99.90;;;;;;5074600;28;20940;-66
2021/10/13 01:10:51;;;;;;;27.00;15.00;;;5.70;99.90;;;;;;5073372;28;20447;-66
2021/10/13 01:13:28;;;;;;;25.83;12.80;;;5.70;99.90;;;;;;5072237;28;20451;-66
2021/10/13 01:16:03;;;;;;;16.87;12.20;;;5.70;99.90;;;;;;5052935;28;20483;-66
2021/10/13 01:18:37;;;;;;;19.63;14.57;;;5.60;99.90;;;;;;5052819;28;20451;-66
2021/10/13 01:21:11;;;;;;;22.70;14.70;;;5.70;99.90;;;;;;5056048;28;20456;-66
2021/10/13 01:24:16;;;;;;;26.27;13.57;;;5.70;99.90;;;;;;5059049;28;20454;-66
2021/10/13 01:26:49;;;;;;;21.67;12.37;;;5.70;99.90;;;;;;5072831;28;20808;-66
2021/10/13 01:29:20;;;;;;;28.70;13.43;;;5.70;99.90;;;;;;5072516;28;20505;-66
2021/10/13 01:31:51;;;;;;;27.17;13.50;;;5.70;99.90;;;;;;5072849;28;20501;-66
2021/10/13 01:34:23;;;;;;;22.50;11.70;;;5.60;99.90;;;;;;5063176;28;20984;-66
2021/10/13 01:36:55;;;;;;;23.30;12.23;;;5.60;99.90;;;;;;5052651;28;20837;-66
2021/10/13 01:39:23;;;;;;;25.50;13.10;;;5.60;99.90;;;;;;5052295;28;20440;-66
2021/10/13 01:41:51;;;;;;;22.00;15.00;;;5.50;99.90;;;;;;5052543;28;20470;-65
2021/10/13 01:44:21;;;;;;;22.43;13.83;;;5.50;99.90;;;;;;5063434;28;20474;-66
2021/10/13 01:46:48;;;;;;;28.87;15.37;;;5.50;99.90;;;;;;5072415;28;20436;-65
2021/10/13 01:49:16;;;;;;;21.87;12.97;;;5.60;99.90;;;;;;5072131;28;20453;-67
2021/10/13 01:51:44;;;;;;;29.73;14.13;;;5.50;99.90;;;;;;5068772;28;20445;-66
2021/10/13 01:54:12;;;;;;;21.80;12.63;;;5.50;99.90;;;;;;5052146;28;20992;-66
2021/10/13 01:56:41;;;;;;;15.50;11.90;;;5.50;99.90;;;;;;5052093;28;20479;-65
2021/10/13 01:59:10;;;;;;;25.60;13.37;;;5.50;99.90;;;;;;5052143;28;20960;-68
2021/10/13 02:01:39;;;;;;;23.17;13.07;;;5.50;99.90;;;;;;5052334;28;20559;-66
2021/10/13 02:04:09;;;;;;;32.63;14.90;;;5.40;99.90;;;;;;5052082;28;20983;-66
2021/10/13 02:06:37;;;;;;;20.57;12.90;;;5.40;99.90;;;;;;5052006;28;20440;-67
2021/10/13 02:09:04;;;;;;;31.00;16.83;;;5.40;99.90;;;;;;5051685;28;20821;-67
2021/10/13 02:11:33;;;;;;;21.30;12.57;;;5.40;99.90;;;;;;5051795;28;20448;-65
2021/10/13 02:14:04;;;;;;;26.23;14.00;;;5.40;99.90;;;;;;5054916;28;20448;-66
2021/10/13 02:16:33;;;;;;;30.70;15.63;;;5.40;99.90;;;;;;5071963;28;20479;-66
2021/10/13 02:19:02;;;;;;;33.07;14.07;;;5.40;99.90;;;;;;5071754;28;20439;-66
2021/10/13 02:21:30;;;;;;;23.93;15.37;;;5.40;99.90;;;;;;5071701;28;20447;-66
2021/10/13 02:23:59;;;;;;;26.30;13.80;;;5.50;99.90;;;;;;5071741;28;20443;-66
2021/10/13 02:26:31;;;;;;;23.50;14.73;;;5.50;99.90;;;;;;5065179;28;20451;-66
2021/10/13 02:29:05;;;;;;;22.43;16.03;;;5.50;99.90;;;;;;5051525;28;20440;-66
2021/10/13 02:31:32;;;;;;;17.00;12.70;;;5.60;99.90;;;;;;5051895;28;20448;-66
2021/10/13 02:34:01;;;;;;;23.73;13.70;;;5.60;99.90;;;;;;5051843;28;20498;-66
2021/10/13 02:36:28;;;;;;;20.80;12.57;;;5.60;99.90;;;;;;5051635;28;20487;-65
2021/10/13 02:38:54;;;;;;;25.43;14.27;;;5.60;99.90;;;;;;5051588;28;20448;-67
2021/10/13 02:41:21;;;;;;;22.40;13.37;;;5.60;99.90;;;;;;5051901;28;20952;-67
2021/10/13 02:43:48;;;;;;;31.33;15.77;;;5.60;99.90;;;;;;5051576;28;20451;-66
2021/10/13 02:46:23;;;;;;;28.77;13.07;;;5.60;99.90;;;;;;5051625;28;20809;-66
2021/10/13 02:48:59;;;;;;;23.70;13.10;;;5.50;99.90;;;;;;5051495;28;20444;-66
2021/10/13 02:51:36;;;;;;;16.43;12.13;;;5.50;99.90;;;;;;5066172;28;20529;-66
2021/10/13 02:54:12;;;;;;;23.50;14.23;;;5.50;99.90;;;;;;5071689;28;20470;-68
2021/10/13 02:56:44;;;;;;;31.30;14.93;;;5.40;99.90;;;;;;5071522;28;20506;-66
2021/10/13 02:59:18;;;;;;;29.33;16.90;;;5.30;99.90;;;;;;5071497;28;20450;-68
2021/10/13 03:01:46;;;;;;;24.77;12.90;;;5.30;99.90;;;;;;5071816;28;20442;-65
2021/10/13 03:04:17;;;;;;;26.00;14.17;;;5.30;99.90;;;;;;5051707;28;20472;-67
2021/10/13 03:06:49;;;;;;;18.47;12.83;;;5.20;99.90;;;;;;5051353;28;20447;-67
2021/10/13 03:09:21;;;;;;;26.23;14.03;;;5.20;99.90;;;;;;5051091;28;20451;-67
2021/10/13 03:11:49;;;;;;;32.70;15.80;;;5.10;99.90;;;;;;5051350;28;20444;-67
2021/10/13 03:14:21;;;;;;;27.63;15.60;;;5.10;99.90;;;;;;5051587;28;20487;-66
2021/10/13 03:16:49;;;;;;;28.23;14.67;;;5.10;99.90;;;;;;5051229;28;20879;-68
2021/10/13 03:19:17;;;;;;;22.63;13.40;;;5.10;99.90;;;;;;5051089;28;20440;-67
2021/10/13 03:21:46;;;;;;;24.27;15.83;;;5.10;99.90;;;;;;5051222;28;20978;-66
2021/10/13 03:24:15;;;;;;;32.33;16.47;;;5.00;99.90;;;;;;5066457;28;20462;-67
2021/10/13 03:26:46;;;;;;;27.20;15.93;;;5.00;99.90;;;;;;5074969;28;20442;-68
2021/10/13 03:29:13;;;;;;;25.17;15.20;;;5.00;99.90;;;;;;5074931;28;20804;-66
2021/10/13 03:31:40;;;;;;;30.63;17.33;;;5.00;99.90;;;;;;5074851;28;20442;-68
2021/10/13 03:34:07;;;;;;;30.83;20.43;;;5.10;99.90;;;;;;5061000;28;20475;-66
2021/10/13 03:36:39;;;;;;;36.90;19.90;;;5.10;99.90;;;;;;5054910;28;20479;-68
2021/10/13 03:39:07;;;;;;;33.83;20.73;;;5.20;99.90;;;;;;5054716;28;20447;-66
2021/10/13 03:41:34;;;;;;;23.47;17.90;;;5.30;99.90;;;;;;5054834;28;20448;-66
2021/10/13 03:44:01;;;;;;;28.27;18.60;;;5.40;99.90;;;;;;5054692;28;20468;-66
2021/10/13 03:46:27;;;;;;;28.00;18.17;;;5.50;99.90;;;;;;5071264;28;20859;-66
2021/10/13 03:48:55;;;;;;;27.20;17.47;;;5.60;99.90;;;;;;5074424;28;20455;-65
2021/10/13 03:51:22;;;;;;;19.40;14.80;;;5.70;99.90;;;;;;5074639;28;20446;-66
2021/10/13 03:53:49;;;;;;;29.90;17.80;;;5.70;99.90;;;;;;5074527;28;20455;-66
2021/10/13 03:56:18;;;;;;;22.03;14.70;;;5.80;99.90;;;;;;5074415;28;20490;-66
2021/10/13 03:58:46;;;;;;;26.63;17.50;;;5.90;99.90;;;;;;5056456;28;20455;-67
2021/10/13 04:01:13;;;;;;;23.67;17.13;;;5.90;99.90;;;;;;5054565;28;20490;-65
2021/10/13 04:03:41;;;;;;;24.83;18.87;;;6.00;99.90;;;;;;5054573;28;20483;-66
2021/10/13 04:06:08;;;;;;;23.63;15.93;;;6.10;99.90;;;;;;5054399;28;20460;-65
2021/10/13 04:08:35;;;;;;;25.97;17.50;;;6.10;99.90;;;;;;5054056;28;20453;-66
2021/10/13 04:11:02;;;;;;;27.37;18.13;;;6.20;99.90;;;;;;5071404;28;20450;-66
2021/10/13 04:13:30;;;;;;;31.00;18.67;;;6.20;99.90;;;;;;5074233;28;20443;-66
2021/10/13 04:15:56;;;;;;;30.00;17.17;;;6.20;99.90;;;;;;5091937;22;20893;-67
2021/10/13 04:18:23;;;;;;;30.00;19.07;;;6.20;99.90;;;;;;5040371;28;20477;-66
2021/10/13 04:20:50;;;;;;;23.87;15.20;;;6.30;99.90;;;;;;5033155;28;20487;-68
2021/10/13 04:23:17;;;;;;;25.67;15.77;;;6.40;99.90;;;;;;5033985;28;20441;-67
2021/10/13 04:25:44;;;;;;;23.17;16.87;;;6.40;99.90;;;;;;5033747;28;20473;-67
2021/10/13 04:28:11;;;;;;;24.10;16.20;;;6.40;99.90;;;;;;5027463;28;20442;-66
2021/10/13 04:30:39;;;;;;;26.20;16.80;;;6.50;99.90;;;;;;5013909;28;20450;-67
2021/10/13 04:33:06;;;;;;;21.73;15.93;;;6.50;99.90;;;;;;5014206;28;20453;-66
2021/10/13 04:35:33;;;;;;;20.60;14.87;;;6.50;99.90;;;;;;5013471;28;20717;-68
2021/10/13 04:38:04;;;;;;;23.27;15.33;;;6.60;99.90;;;;;;5013928;28;20883;-67
2021/10/13 04:40:30;;;;;;;18.97;14.93;;;6.60;99.90;;;;;;5021294;28;20449;-67
2021/10/13 04:42:57;;;;;;;19.60;15.13;;;6.60;99.90;;;;;;5033722;28;20452;-67
2021/10/13 04:45:24;;;;;;;19.80;15.97;;;6.70;99.90;;;;;;5033708;28;20465;-65
2021/10/13 04:47:52;;;;;;;25.70;18.93;;;6.70;99.90;;;;;;5033587;28;20449;-68
2021/10/13 04:50:19;;;;;;;22.87;15.50;;;6.70;99.90;;;;;;5033459;28;20452;-67
2021/10/13 04:52:45;;;;;;;19.67;15.50;;;6.70;99.90;;;;;;5022310;28;20446;-66
2021/10/13 04:55:12;;;;;;;16.83;13.87;;;6.70;99.90;;;;;;5013631;28;20815;-67
2021/10/13 04:57:39;;;;;;;24.87;17.57;;;6.60;99.90;;;;;;5013719;28;20839;-66
2021/10/13 05:00:07;;;;;;;26.73;15.20;;;6.60;99.90;;;;;;5013598;28;20450;-68
2021/10/13 05:02:34;;;;;;;24.27;15.80;;;6.50;99.90;;;;;;5013596;28;20789;-67
2021/10/13 05:05:02;;;;;;;26.87;16.70;;;6.50;99.90;;;;;;5027786;28;20496;-66
2021/10/13 05:07:28;;;;;;;22.10;14.67;;;6.50;99.90;;;;;;5033261;28;20437;-65
2021/10/13 05:09:55;;;;;;;21.87;15.63;;;6.50;99.90;;;;;;5032912;28;20449;-68
2021/10/13 05:12:22;;;;;;;23.83;15.93;;;6.50;99.90;;;;;;5033255;28;20452;-68
2021/10/13 05:14:48;;;;;;;21.20;16.67;;;6.50;99.90;;;;;;5033120;28;20484;-68
2021/10/13 05:17:15;;;;;;;23.97;16.70;;;6.50;99.90;;;;;;5016467;28;20486;-67
2021/10/13 05:19:42;;;;;;;25.40;15.70;;;6.40;99.90;;;;;;5032658;28;20449;-68
2021/10/13 05:22:10;;;;;;;21.13;15.33;;;6.40;99.90;;;;;;5022697;28;20453;-66
2021/10/13 05:24:37;;;;;;;23.03;15.60;;;6.40;99.90;;;;;;5021237;28;20848;-65
2021/10/13 05:27:04;;;;;;;27.63;16.10;;;6.30;99.90;;;;;;5015605;28;20746;-65
2021/10/13 05:29:30;;;;;;;31.43;18.13;;;6.20;99.90;;;;;;5001575;28;20457;-66
2021/10/13 05:31:57;;;;;;;27.20;18.07;;;6.10;99.90;;;;;;5001757;28;20454;-64
2021/10/13 05:34:24;;;;;;;26.20;17.57;;;6.10;99.90;;;;;;5001386;28;20453;-66
2021/10/13 05:36:51;;;;;;;28.77;16.67;;;6.00;99.90;;;;;;5005898;28;20487;-65
2021/10/13 05:39:19;;;;;;;30.87;19.50;;;5.90;99.90;;;;;;5021172;28;20453;-65
2021/10/13 05:41:45;;;;;;;29.30;17.40;;;5.90;99.90;;;;;;5021775;28;20453;-63
2021/10/13 05:44:12;;;;;;;32.00;17.80;;;5.80;99.90;;;;;;5021416;28;20496;-65
2021/10/13 05:46:39;;;;;;;23.10;15.77;;;5.80;99.90;;;;;;5020620;28;20553;-63
2021/10/13 05:49:05;;;;;;;32.10;19.00;;;5.80;99.90;;;;;;5016876;28;20446;-65
2021/10/13 05:51:32;;;;;;;26.73;17.60;;;5.70;99.90;;;;;;5003722;28;20457;-64
2021/10/13 05:53:59;;;;;;;33.07;19.97;;;5.70;99.90;;;;;;5001474;28;21220;-67
2021/10/13 05:56:27;;;;;;;27.33;16.80;;;5.70;99.90;;;;;;5001686;28;20501;-67
2021/10/13 05:58:54;;;;;;;30.17;17.77;;;5.70;99.90;;;;;;5001306;28;20497;-66
2021/10/13 06:01:21;;;;;;;30.37;18.43;;;5.60;99.90;;;;;;5012599;28;20573;-67
2021/10/13 06:03:49;;;;;;;28.63;19.13;;;5.70;99.90;;;;;;5021711;28;20456;-65
2021/10/13 06:06:16;;;;;;;28.80;17.83;;;5.70;99.90;;;;;;5018321;28;20493;-67
2021/10/13 06:08:43;;;;;;;35.80;21.90;;;5.80;99.90;;;;;;5005826;28;20562;-64
2021/10/13 06:11:09;;;;;;;31.20;19.60;;;5.80;99.90;;;;;;5008502;28;21174;-64
2021/10/13 06:13:37;;;;;;;24.60;17.80;;;5.90;99.90;;;;;;5016827;28;20452;-61
2021/10/13 06:16:07;;;;;;;25.97;19.67;;;6.10;99.90;;;;;;5020718;28;20476;-61
2021/10/13 06:18:34;;;;;;;24.30;20.37;;;6.20;99.90;;;;;;5020147;28;21180;-62
2021/10/13 06:21:01;;;;;;;25.30;17.40;;;6.40;99.90;;;;;;5019455;28;21258;-63
2021/10/13 06:23:28;;;;;;;23.77;17.93;;;6.50;99.90;;;;;;5001488;28;20450;-64
2021/10/13 06:25:54;;;;;;;22.43;16.27;;;6.70;99.90;;;;;;5008314;28;20470;-61
2021/10/13 06:28:21;;;;;;;25.30;16.63;;;6.90;99.90;;;;;;5002660;28;20457;-62
2021/10/13 06:30:49;;;;;;;22.77;16.67;;;7.00;99.90;;;;;;5018522;28;20456;-62
2021/10/13 06:33:17;;;;;;;20.87;16.47;;;7.20;99.90;;;;;;5040380;28;20491;-61
2021/10/13 06:35:44;;;;;;;20.20;16.50;;;7.30;99.90;;;;;;5035739;28;20481;-63
2021/10/13 06:38:11;;;;;;;27.93;14.73;;;7.50;99.90;;;;;;5032307;28;20491;-62
2021/10/13 06:40:37;;;;;;;16.10;11.80;;;7.60;99.90;;;;;;5023537;28;20434;-66
2021/10/13 06:43:06;;;;;;;16.07;10.90;;;7.70;99.90;;;;;;5006048;28;20458;-66
2021/10/13 06:45:35;;;;;;;18.67;13.40;;;7.80;99.90;;;;;;5005363;28;20477;-66
2021/10/13 06:48:03;;;;;;;15.73;12.40;;;8.00;99.90;;;;;;5009971;28;20454;-62
2021/10/13 06:50:30;;;;;;;12.47;10.20;;;8.10;99.90;;;;;;5007491;28;20453;-67
2021/10/13 06:52:57;;;;;;;14.00;12.53;;;8.10;99.90;;;;;;5023256;28;20458;-62
2021/10/13 06:55:28;;;;;;;17.00;12.83;;;8.20;99.90;;;;;;5037422;28;20862;-62
2021/10/13 06:57:55;;;;;;;10.63;9.50;;;8.30;99.90;;;;;;5041999;28;20492;-66
2021/10/13 07:00:22;;;;;;;17.70;12.00;;;8.40;99.90;;;;;;5039271;28;20500;-65
2021/10/13 07:02:48;;;;;;;27.20;11.90;;;8.40;99.90;;;;;;5036935;28;20452;-66
2021/10/13 07:05:17;;;;;;;11.73;9.37;;;8.50;99.90;;;;;;5010828;28;20480;-66
2021/10/13 07:07:45;;;;;;;13.67;11.50;;;8.50;99.90;;;;;;5017003;28;20449;-61
2021/10/13 07:10:11;;;;;;;11.23;9.07;;;8.50;99.90;;;;;;5019425;28;20450;-64
2021/10/13 07:12:38;;;;;;;19.47;11.53;;;8.50;99.90;;;;;;5015210;28;20456;-65
2021/10/13 07:15:07;;;;;;;14.50;10.63;;;8.50;99.90;;;;;;5020031;28;20501;-63
2021/10/13 07:17:34;;;;;;;11.10;9.37;;;8.50;99.90;;;;;;5004099;28;20489;-64
2021/10/13 07:20:06;;;;;;;14.03;12.10;;;8.50;99.90;;;;;;5013171;28;20465;-63
2021/10/13 07:25:21;;;;;;;11.40;10.07;;;8.60;99.90;;;;;;5026627;28;20472;-64
2021/10/13 07:27:48;;;;;;;16.90;10.10;;;8.80;99.90;;;;;;5024560;28;20949;-62
2021/10/13 07:30:18;;;;;;;10.90;8.90;;;8.90;99.90;;;;;;5041800;28;20695;-63
2021/10/13 07:32:45;;;;;;;15.27;11.10;;;9.20;99.90;;;;;;5033982;28;20456;-64
2021/10/13 07:35:13;;;;;;;13.27;10.27;;;9.60;99.90;;;;;;5035144;28;20476;-65
2021/10/13 07:37:41;;;;;;;11.00;9.47;;;9.80;99.90;;;;;;5017836;28;20568;-65
2021/10/13 07:40:09;;;;;;;15.43;11.13;;;9.90;99.90;;;;;;5014913;28;20450;-64
2021/10/13 07:42:36;;;;;;;11.23;9.77;;;10.10;99.90;;;;;;5012854;28;20446;-64
2021/10/13 07:45:04;;;;;;;13.30;11.10;;;10.00;99.90;;;;;;5012769;28;20480;-64
2021/10/13 07:47:30;;;;;;;12.57;11.53;;;9.90;99.90;;;;;;5030015;28;20452;-64
2021/10/13 07:49:57;;;;;;;13.40;12.20;;;10.00;99.90;;;;;;5029861;28;20445;-65
2021/10/13 07:52:24;;;;;;;13.17;11.97;;;10.20;99.90;;;;;;5035716;28;20453;-65
2021/10/13 07:54:52;;;;;;;13.87;12.67;;;10.30;99.90;;;;;;5025795;28;20499;-64
2021/10/13 07:57:19;;;;;;;15.47;14.00;;;10.40;99.90;;;;;;5019404;28;20454;-62
2021/10/13 07:59:46;;;;;;;15.83;13.90;;;10.40;99.90;;;;;;5016107;28;20493;-64
2021/10/13 08:02:13;;;;;;;14.87;13.60;;;10.60;99.90;;;;;;5018057;28;20454;-64
2021/10/13 08:04:39;;;;;;;15.30;14.10;;;10.60;99.90;;;;;;5025073;28;20488;-64
2021/10/13 08:07:06;;;;;;;15.40;14.07;;;10.70;99.90;;;;;;5030276;28;21001;-63
2021/10/13 08:09:33;;;;;;;15.83;14.73;;;10.90;99.90;;;;;;5035695;28;20449;-65
2021/10/13 08:12:01;;;;;;;15.40;14.17;;;11.10;99.90;;;;;;5024567;28;20456;-66
2021/10/13 08:14:28;;;;;;;14.90;13.90;;;11.30;99.90;;;;;;5032486;28;21184;-63
2021/10/13 08:16:57;;;;;;;17.00;15.50;;;11.50;99.90;;;;;;5034991;28;20446;-62
2021/10/13 08:19:24;;;;;;;15.77;14.57;;;11.50;99.90;;;;;;5020901;28;20956;-62
2021/10/13 08:21:51;;;;;;;15.87;14.63;;;11.80;99.90;;;;;;5019301;28;20449;-63
2021/10/13 08:24:18;;;;;;;17.30;16.00;;;11.90;99.90;;;;;;5018931;28;20461;-63
2021/10/13 08:26:45;;;;;;;17.80;16.67;;;12.10;99.90;;;;;;5037776;28;20485;-63
2021/10/13 08:29:13;;;;;;;17.23;16.03;;;12.20;99.90;;;;;;5008127;28;20997;-66
2021/10/13 08:31:40;;;;;;;17.50;16.00;;;12.20;99.90;;;;;;5028214;28;20449;-65
2021/10/13 08:34:06;;;;;;;18.87;17.63;;;12.10;99.90;;;;;;5027298;28;20449;-64
2021/10/13 08:36:33;;;;;;;19.37;17.73;;;12.10;99.90;;;;;;5012659;28;20920;-64
2021/10/13 08:39:00;;;;;;;19.53;17.87;;;12.00;99.90;;;;;;5007577;28;20500;-62
2021/10/13 08:41:27;;;;;;;18.90;17.33;;;12.20;99.90;;;;;;5007008;28;20457;-65
2021/10/13 08:43:54;;;;;;;20.37;19.10;;;12.30;99.90;;;;;;5004649;28;20450;-64
2021/10/13 08:46:22;;;;;;;19.23;17.83;;;12.20;99.90;;;;;;5008260;28;20474;-63
2021/10/13 08:48:49;;;;;;;19.43;18.20;;;12.20;99.90;;;;;;5026987;28;20457;-63
2021/10/13 08:51:16;;;;;;;18.30;17.00;;;12.10;99.90;;;;;;5031158;28;21089;-65
2021/10/13 08:53:43;;;;;;;18.73;17.63;;;12.00;99.90;;;;;;5034828;28;20456;-64
2021/10/13 08:56:09;;;;;;;17.37;16.27;;;12.00;99.90;;;;;;5038430;28;20457;-64
2021/10/13 08:58:40;;;;;;;18.37;17.10;;;12.00;99.90;;;;;;5038222;28;20493;-63
2021/10/13 09:01:12;;;;;;;19.77;18.43;;;12.00;99.90;;;;;;5021089;28;20454;-64
2021/10/13 09:03:42;;;;;;;19.57;17.93;;;12.10;99.90;;;;;;5016252;28;20442;-62
2021/10/13 09:06:21;;;;;;;19.17;17.67;;;12.10;99.90;;;;;;5013285;28;20883;-64
2021/10/13 09:08:55;;;;;;;18.97;17.57;;;12.20;99.90;;;;;;5012847;28;20457;-61
2021/10/13 09:11:33;;;;;;;17.93;16.80;;;12.30;99.90;;;;;;5020325;28;20449;-65
2021/10/13 09:14:12;;;;;;;18.20;17.00;;;12.50;99.90;;;;;;5034597;28;20457;-65
2021/10/13 09:16:51;;;;;;;17.97;16.80;;;12.60;99.90;;;;;;5033900;28;20459;-62
2021/10/13 09:19:21;;;;;;;19.03;17.73;;;12.70;99.90;;;;;;5038666;28;20495;-66
2021/10/13 09:21:52;;;;;;;19.50;18.10;;;12.80;99.90;;;;;;5037769;28;21241;-63
2021/10/13 09:24:19;;;;;;;18.77;17.47;;;12.80;99.90;;;;;;5022801;28;20446;-60
2021/10/13 09:26:46;;;;;;;19.53;18.00;;;13.00;99.90;;;;;;5013979;28;20465;-63
2021/10/13 09:29:13;;;;;;;17.80;16.87;;;13.10;99.90;;;;;;5009227;28;20458;-64
2021/10/13 09:31:40;;;;;;;18.60;17.43;;;13.30;99.90;;;;;;5008164;28;20461;-63
2021/10/13 09:34:08;;;;;;;18.97;17.77;;;13.40;99.90;;;;;;5010259;28;20450;-64
2021/10/13 09:36:38;;;;;;;19.10;18.00;;;13.60;99.90;;;;;;5025570;28;21141;-64
2021/10/13 09:39:11;;;;;;;19.10;18.00;;;13.60;99.90;;;;;;5026917;28;20819;-64
2021/10/13 09:42:04;;;;;;;19.43;18.13;;;13.70;99.90;;;;;;5035828;28;20449;-64
2021/10/13 09:44:32;;;;;;;20.10;18.80;;;13.80;99.90;;;;;;5027079;28;20470;-60
2021/10/13 09:47:03;;;;;;;20.23;18.87;;;13.90;99.90;;;;;;5027521;28;20451;-62
2021/10/13 09:49:36;;;;;;;20.10;18.70;;;13.90;99.90;;;;;;5002535;28;20445;-63
2021/10/13 09:52:11;;;;;;;18.77;17.57;;;13.80;99.90;;;;;;4999548;28;21004;-61
2021/10/13 09:54:43;;;;;;;20.27;18.80;;;13.90;99.90;;;;;;5000454;28;20485;-61
2021/10/13 09:57:22;;;;;;;20.07;18.60;;;13.90;99.90;;;;;;5011711;28;20460;-63
2021/10/13 10:00:01;;;;;;;19.50;18.33;;;14.00;99.90;;;;;;5039376;28;20477;-62
2021/10/13 10:02:40;;;;;;;20.10;18.97;;;14.20;99.90;;;;;;5040948;28;20461;-60
2021/10/13 10:05:13;;;;;;;21.73;20.13;;;14.00;99.90;;;;;;5034234;28;20909;-64
2021/10/13 10:07:43;;;;;;;19.93;18.63;;;14.10;99.90;;;;;;5015278;28;20966;-64
2021/10/13 10:10:16;;;;;;;19.67;18.47;;;14.30;99.90;;;;;;5035840;28;20480;-64
2021/10/13 10:13:05;;;;;;;19.17;18.20;;;14.60;99.90;;;;;;5035659;28;20448;-62
2021/10/13 10:15:37;;;;;;;18.50;17.60;;;15.00;99.90;;;;;;5051675;22;20519;-67
2021/10/13 10:18:26;;;;;;;19.73;18.63;;;15.40;99.90;;;;;;5031517;28;20519;-67
2021/10/13 10:20:54;;;;;;;18.90;17.70;;;15.80;99.90;;;;;;5019944;28;20898;-67
2021/10/13 10:23:31;;;;;;;19.40;18.30;;;16.10;99.90;;;;;;5019978;28;20459;-67
2021/10/13 10:26:01;;;;;;;18.97;17.97;;;16.70;99.90;;;;;;5019806;28;20873;-67
2021/10/13 10:28:57;;;;;;;20.33;18.97;;;17.10;99.90;;;;;;5000629;28;20876;-67
2021/10/13 10:31:33;;;;;;;20.30;19.17;;;17.50;99.90;;;;;;5000491;28;20520;-68
2021/10/13 10:34:26;;;;;;;20.47;19.47;;;17.90;99.90;;;;;;5000275;28;20450;-66
2021/10/13 10:37:12;;;;;;;23.53;21.80;;;18.30;99.90;;;;;;4995409;28;20481;-67
2021/10/13 10:40:02;;;;;;;23.10;21.73;;;18.20;99.90;;;;;;4986597;28;20488;-67
2021/10/13 10:42:52;;;;;;;21.30;20.07;;;18.20;99.90;;;;;;4995455;28;21158;-66
2021/10/13 10:45:22;;;;;;;22.30;21.00;;;18.30;99.90;;;;;;5000393;28;20884;-66
2021/10/13 10:48:08;;;;;;;23.03;21.53;;;18.40;99.90;;;;;;5000642;28;20449;-67
2021/10/13 10:50:38;;;;;;;23.17;21.60;;;18.20;99.90;;;;;;5000606;28;20445;-67
2021/10/13 10:53:15;;;;;;;21.93;20.77;;;17.60;99.90;;;;;;4999804;28;20531;-67
2021/10/13 10:55:46;;;;;;;20.87;19.87;;;17.00;99.90;;;;;;5000359;28;20461;-66
2021/10/13 10:58:20;;;;;;;20.90;19.80;;;16.70;99.90;;;;;;5000073;28;20460;-67
2021/10/13 11:01:03;;;;;;;21.90;20.50;;;16.50;99.90;;;;;;5000318;28;20461;-69
2021/10/13 11:03:34;;;;;;;21.00;19.70;;;16.10;99.90;;;;;;5006172;28;21145;-67
2021/10/13 11:06:18;;;;;;;22.17;20.87;;;16.20;99.90;;;;;;5011623;28;20470;-67
2021/10/13 11:08:56;;;;;;;21.17;20.10;;;16.40;99.90;;;;;;5011446;28;20461;-67
2021/10/13 11:11:26;;;;;;;22.10;21.00;;;16.30;99.90;;;;;;5008714;28;20450;-67
2021/10/13 11:13:58;;;;;;;22.43;21.23;;;16.40;99.90;;;;;;4992187;28;20790;-68
2021/10/13 11:16:25;;;;;;;22.30;20.83;;;16.10;99.90;;;;;;4991853;28;20478;-68
2021/10/13 11:18:53;;;;;;;21.83;20.60;;;16.00;99.90;;;;;;4991884;28;20482;-68
2021/10/13 11:21:20;;;;;;;21.30;19.93;;;15.90;99.90;;;;;;4993969;28;20454;-68
2021/10/13 11:23:47;;;;;;;23.00;20.63;;;16.20;99.90;;;;;;5011892;28;20449;-67
2021/10/13 11:26:14;;;;;;;21.77;20.53;;;16.50;99.90;;;;;;5011203;28;20477;-70
2021/10/13 11:28:43;;;;;;;21.93;20.70;;;17.30;99.90;;;;;;5011448;28;20449;-69
2021/10/13 11:31:11;;;;;;;22.50;21.30;;;18.10;99.90;;;;;;5010964;28;20516;-69
2021/10/13 11:33:39;;;;;;;22.23;20.93;;;18.70;99.90;;;;;;4991740;28;20839;-68
2021/10/13 11:36:07;;;;;;;20.93;19.73;;;19.30;99.70;;;;;;4991839;28;20474;-68
2021/10/13 11:38:36;;;;;;;20.40;19.50;;;18.80;98.70;;;;;;4991595;28;20497;-69
2021/10/13 11:41:13;;;;;;;20.27;19.37;;;18.00;99.40;;;;;;4991635;28;20451;-69
2021/10/13 11:43:42;;;;;;;21.90;20.80;;;17.80;99.90;;;;;;4991728;28;20469;-68
2021/10/13 11:46:14;;;;;;;21.77;20.67;;;17.80;99.90;;;;;;4994470;28;20510;-69
2021/10/13 11:48:41;;;;;;;20.00;19.10;;;17.20;99.90;;;;;;4995122;28;20461;-68
2021/10/13 11:51:11;;;;;;;21.50;20.20;;;16.90;99.90;;;;;;4995414;28;20482;-67
2021/10/13 11:53:38;;;;;;;20.83;19.63;;;16.80;99.90;;;;;;4995235;28;20956;-67
2021/10/13 11:56:10;;;;;;;20.10;19.00;;;17.00;99.90;;;;;;4995311;28;20505;-67
2021/10/13 11:58:37;;;;;;;19.10;18.27;;;16.80;99.90;;;;;;4995016;28;20454;-67
2021/10/13 12:01:06;;;;;;;20.30;19.20;;;16.80;99.90;;;;;;5007575;28;20453;-68
2021/10/13 12:03:35;;;;;;;21.23;19.17;;;16.60;99.90;;;;;;5014842;28;20540;-68
2021/10/13 12:06:03;;;;;;;18.90;18.13;;;16.70;99.90;;;;;;5014480;28;20489;-68
2021/10/13 12:08:33;;;;;;;19.03;18.13;;;17.00;99.90;;;;;;5014479;28;20449;-68
2021/10/13 12:11:07;;;;;;;19.67;18.67;;;18.10;99.90;;;;;;5002941;28;20451;-69
2021/10/13 12:13:36;;;;;;;19.90;18.90;;;18.90;97.80;;;;;;4994939;28;20462;-68
2021/10/13 12:16:09;;;;;;;19.30;18.60;;;19.10;95.30;;;;;;4994624;28;20487;-68
2021/10/13 12:18:37;;;;;;;21.10;20.00;;;18.50;96.10;;;;;;4994614;28;20451;-68
2021/10/13 12:21:13;;;;;;;19.20;18.30;;;18.00;97.00;;;;;;5006512;28;20955;-68
2021/10/13 12:23:45;;;;;;;20.63;19.20;;;17.50;97.50;;;;;;5014438;28;20450;-67
2021/10/13 12:26:14;;;;;;;19.77;18.90;;;17.00;98.90;;;;;;5014235;28;20532;-68
2021/10/13 12:28:41;;;;;;;20.23;19.10;;;16.70;98.80;;;;;;5013984;28;20812;-67
2021/10/13 12:31:12;;;;;;;19.33;18.43;;;16.40;99.90;;;;;;5013658;28;20465;-68
2021/10/13 12:33:45;;;;;;;21.20;19.73;;;16.00;99.90;;;;;;5014076;28;20453;-68
2021/10/13 12:36:18;;;;;;;20.33;18.93;;;15.80;99.90;;;;;;5014042;28;20462;-68
2021/10/13 12:38:50;;;;;;;19.40;18.40;;;15.70;99.90;;;;;;5013809;28;20855;-68
2021/10/13 12:41:18;;;;;;;18.63;17.83;;;15.50;99.90;;;;;;5000569;28;21283;-68
2021/10/13 12:43:47;;;;;;;20.20;19.17;;;15.60;99.90;;;;;;4994330;28;20976;-68
2021/10/13 12:46:36;;;;;;;19.43;18.27;;;15.80;99.90;;;;;;4994257;28;21221;-68
2021/10/13 12:49:13;;;;;;;19.77;18.67;;;16.10;99.90;;;;;;4994135;28;20806;-68